• Join FlightAware (Why Join?)
  • Login
  • US Flag 
01:20PM EST


 

Airport Tracker/Info


-or-


 

Live Flight TrackerFlight Track Log ✈ N830QS ✈ 12-Jan-2014 ✈ KBGF - KMQS

Flight Track Log - Related Links

Times and Time Zones

All times are in EST time to prevent confusion due to time zone crossing. See the N830QS flight status page for this flight to view local times or setup timezone preferences in your user account.

Time Position Orientation Groundspeed Altitude Reporting Facility
EST Latitude Longitude Course Direction KTS MPH feet Rate Location/Type
02:55PM 35.1536 -85.9981 90° East 284 327 6,800  Level Memphis Center
02:56PM 35.1847 -85.9067 67° East 357 411 10,400 3,180 Climbing Atlanta Center
02:57PM 35.2194 -85.8108 66° East 305 351 12,700 2,220 Climbing Atlanta Center
02:58PM 35.2606 -85.6997 66° East 337 388 14,900 2,160 Climbing Atlanta Center
02:59PM 35.3061 -85.5758 66° East 370 426 17,100 2,100 Climbing Atlanta Center
03:00PM 35.5255 -85.4232 90° East  Level Estimated
03:00PM 35.3619 -85.4242 66° East 400 460 19,600  Level Atlanta Center
03:01PM 35.4072 -85.2950 67° East 400 460 21,800 2,100 Climbing Atlanta Center
03:02PM 35.4544 -85.1631 66° East 405 466 23,800 1,800 Climbing Atlanta Center
03:03PM 35.5036 -85.0261 66° East 424 488 25,500 1,680 Climbing Atlanta Center
03:04PM 35.5528 -84.8861 67° East 429 494 27,200 1,680 Climbing Atlanta Center
03:05PM 35.6056 -84.7489 65° Northeast 435 501 28,900 1,560 Climbing Atlanta Center
03:06PM 35.6522 -84.6061 68° East 435 501 30,400 1,380 Climbing Atlanta Center
03:07PM 35.7031 -84.4683 66° East 435 501 31,700 1,200 Climbing Atlanta Center
03:08PM 35.7472 -84.3433 66° East 442 509 32,900 1,140 Climbing Atlanta Center
03:09PM 35.7975 -84.2025 66° East 442 509 34,000 1,020 Climbing Atlanta Center
03:10PM 35.8475 -84.0592 67° East 442 509 35,000 960 Climbing Atlanta Center
03:11PM 35.8956 -83.9183 67° East 442 509 36,000 900 Climbing Atlanta Center
03:12PM 35.9517 -83.7769 64° Northeast 442 509 36,900 900 Climbing Atlanta Center
03:13PM 36.0056 -83.6331 65° Northeast 442 509 37,800 900 Climbing Atlanta Center
03:14PM 36.0653 -83.4814 64° Northeast 442 509 38,700 900 Climbing Atlanta Center
03:15PM 36.1189 -83.3394 65° Northeast 442 509 39,600 900 Climbing Atlanta Center
03:16PM 36.1722 -83.2003 65° Northeast 442 509 40,600 660 Climbing Atlanta Center
03:17PM 36.2233 -83.0608 66° East 442 509 41,000 180 Climbing Atlanta Center
03:18PM 36.2783 -82.9183 64° Northeast 448 516 41,000  Level Atlanta Center
03:19PM 36.3333 -82.7706 65° Northeast 453 521 41,000  Level Atlanta Center
03:20PM 36.3900 -82.6228 64° Northeast 468 539 41,000  Level Atlanta Center
03:21PM 36.4467 -82.4722 65° Northeast 468 539 41,000  Level Atlanta Center
03:22PM 36.5031 -82.3186 65° Northeast 475 547 41,000  Level Atlanta Center
03:23PM 36.5592 -82.1675 65° Northeast 475 547 41,000  Level Atlanta Center
03:24PM 36.6172 -82.0161 64° Northeast 475 547 41,000  Level Atlanta Center
03:25PM 36.6731 -81.8647 65° Northeast 482 555 41,000  Level Atlanta Center
03:26PM 36.7286 -81.7103 66° East 482 555 41,000  Level Atlanta Center
03:27PM 36.7861 -81.5608 64° Northeast 482 555 41,000  Level Atlanta Center
03:28PM 36.8331 -81.4142 68° East 468 539 41,000  Level Atlanta Center
03:29PM 36.8842 -81.2750 65° Northeast 468 539 41,000  Level Atlanta Center
03:30PM 36.9369 -81.1250 66° East 468 539 41,000  Level Atlanta Center
03:31PM 37.0331 -80.8633 65° Northeast 482 555 41,000  Level Washington Center
03:32PM 37.0878 -80.7108 66° East 482 555 41,000  Level Washington Center
03:33PM 37.1153 -80.5486 78° East 477 549 41,000  Level Washington Center
03:34PM 37.1431 -80.3836 78° East 477 549 41,000  Level Washington Center
03:35PM 37.1656 -80.2336 79° East 483 556 41,000  Level Washington Center
03:36PM 37.1928 -80.0686 78° East 483 556 41,000  Level Washington Center
03:37PM 37.2197 -79.9031 78° East 483 556 41,000  Level Washington Center
03:38PM 37.2444 -79.7375 79° East 483 556 41,000  Level Washington Center
03:39PM 37.2714 -79.5511 80° East 483 556 41,000 -720 Level Washington Center
03:40PM 37.3000 -79.3803 78° East 488 562 39,600 -1,440 Descending Washington Center
03:41PM 37.3233 -79.2353 79° East 482 555 38,200 -1,440 Descending Washington Center
03:42PM 37.3464 -79.0847 79° East 458 527 36,800 -1,380 Descending Washington Center
03:43PM 37.3694 -78.9394 79° East 437 503 35,500 -1,080 Descending Washington Center
03:44PM 37.3950 -78.7653 79° East 442 509 34,700 -780 Descending Washington Center
03:45PM 37.4200 -78.6069 79° East 454 522 34,000 -360 Descending Washington Center
03:46PM 37.4428 -78.4483 80° East 454 522 34,000  Level Washington Center
03:47PM 37.4672 -78.2922 79° East 454 522 34,000  Level Washington Center
03:48PM 37.4853 -78.1331 82° East 467 537 34,000 -300 Level Washington Center
03:49PM 37.5156 -77.9797 76° East 461 531 33,400 -1,080 Descending Washington Center
03:50PM 37.5889 -77.8508 54° Northeast 445 512 31,900 -1,260 Descending Washington Center
03:51PM 37.6744 -77.7406 46° Northeast 436 502 31,000 -1,080 Descending Washington Center
03:52PM 37.7597 -77.6353 44° Northeast 430 495 29,800 -1,500 Descending Washington Center
03:53PM 37.8511 -77.5328 42° Northeast 430 495 28,100 -960 Descending Washington Center
03:54PM 37.9506 -77.4431 35° Northeast 430 495 28,000 -540 Descending Washington Center
03:55PM 38.0497 -77.3533 35° Northeast 430 495 27,100 -900 Descending Washington Center
03:56PM 38.1511 -77.2631 35° Northeast 435 501 26,200 -900 Descending Washington Center
03:57PM 38.2483 -77.1703 37° Northeast 435 501 25,300 -900 Descending Washington Center
03:58PM 38.3433 -77.0847 35° Northeast 430 495 24,400 -720 Descending Washington Center
03:59PM 38.4339 -76.9992 36° Northeast 417 480 24,000 -240 Descending Washington Center
04:00PM 38.5139 -76.9264 35° Northeast 400 460 24,000  Level Washington Center
04:01PM 38.6003 -76.8456 36° Northeast 389 448 24,000  Level Washington Center
04:02PM 38.6825 -76.7644 38° Northeast 384 442 24,000 -660 Level Washington Center
04:03PM 38.7275 -76.6322 66° East 379 436 22,700 -1,740 Descending Washington Center
04:04PM 38.7600 -76.4808 75° East 398 458 20,600 -2,040 Descending Washington Center
04:05PM 38.7881 -76.3375 76° East 410 472 18,600 -1,980 Descending Washington Center
04:06PM 38.8181 -76.1964 75° East 410 472 16,700 -1,860 Descending Washington Center
04:07PM 38.8519 -76.0475 74° East 410 472 15,000 -900 Descending Washington Center
04:08PM 38.8794 -75.9117 75° East 392 451 15,000  Level Washington Center
04:09PM 38.9297 -75.7997 60° Northeast 363 418 15,000  Level Washington Center
04:10PM 39.0092 -75.7253 36° Northeast 351 404 15,000  Level Washington Center
04:11PM 39.0989 -75.6744 24° Northeast 338 389 15,000 -900 Level Washington Center
04:13PM 39.2500 -75.6500 North 288 331 12,600 -1,200 Descending Philadelphia TRACON
04:14PM 39.3333 -75.6667 351° North 261 300 11,800 -840 Descending Philadelphia TRACON
04:15PM 39.4000 -75.6833 349° North 274 315 10,900 -1,020 Descending Philadelphia TRACON
04:16PM 39.4833 -75.6833 360° North 272 313 9,700 -1,320 Descending Philadelphia TRACON
04:17PM 39.5500 -75.7000 349° North 262 302 8,400 -1,620 Descending Philadelphia TRACON
04:18PM 39.6167 -75.7000 360° North 247 284 6,700 -1,620 Descending Philadelphia TRACON
04:19PM 39.6833 -75.7333 339° North 234 269 5,100 -1,440 Descending Philadelphia TRACON
04:20PM 39.7500 -75.7500 349° North 239 275 3,900 -1,140 Descending Philadelphia TRACON
04:21PM 39.8167 -75.7833 339° North 230 265 2,900 -540 Descending Philadelphia TRACON
04:22PM 39.8667 -75.8000 346° North 216 249 2,900  Level Philadelphia TRACON